createdAt,value
2018-02-21T00:02:09.203Z,46.57
2018-02-21T00:04:36.715Z,43.53
2018-02-21T00:07:04.444Z,41.50
2018-02-21T00:09:33.454Z,41.93
2018-02-21T00:12:01.191Z,44.33
2018-02-21T00:14:29.500Z,47.37
2018-02-21T00:16:57.505Z,47.83
2018-02-21T00:19:25.050Z,44.90
2018-02-21T00:21:52.567Z,43.33
2018-02-21T00:24:20.307Z,55.17
2018-02-21T00:26:47.816Z,50.43
2018-02-21T00:29:15.543Z,51.33
2018-02-21T00:31:43.048Z,42.50
2018-02-21T00:34:10.543Z,49.00
2018-02-21T00:36:38.163Z,42.57
2018-02-21T00:39:05.707Z,47.23
2018-02-21T00:41:33.290Z,45.23
2018-02-21T00:44:00.795Z,51.33
2018-02-21T00:46:28.350Z,53.80
2018-02-21T00:48:55.855Z,42.60
2018-02-21T00:51:23.519Z,48.50
2018-02-21T00:53:51.046Z,44.80
2018-02-21T00:56:20.056Z,39.97
2018-02-21T00:58:47.576Z,43.40
2018-02-21T01:01:15.091Z,47.30
2018-02-21T01:03:42.612Z,48.07
2018-02-21T01:06:10.125Z,45.43
2018-02-21T01:08:37.903Z,49.00
2018-02-21T01:11:05.407Z,46.20
2018-02-21T01:13:32.989Z,44.40
2018-02-21T01:16:00.570Z,44.13
2018-02-21T01:18:28.351Z,52.63
2018-02-21T01:20:55.862Z,47.93
2018-02-21T01:23:23.368Z,47.03
2018-02-21T01:25:50.881Z,50.27
2018-02-21T01:28:18.471Z,42.43
2018-02-21T01:30:45.976Z,47.90
2018-02-21T01:33:13.482Z,50.60
2018-02-21T01:35:40.983Z,44.60
2018-02-21T01:38:09.263Z,42.27
2018-02-21T01:40:36.777Z,41.80
2018-02-21T01:43:04.294Z,48.70
2018-02-21T01:45:32.213Z,47.50
2018-02-21T01:47:59.963Z,48.70
2018-02-21T01:50:39.586Z,55.30
2018-02-21T01:53:07.183Z,54.93
2018-02-21T01:55:34.704Z,44.03
2018-02-21T01:58:02.215Z,49.80
2018-02-21T02:00:32.045Z,48.90
2018-02-21T02:02:59.755Z,47.07
2018-02-21T02:05:27.279Z,49.97
2018-02-21T02:07:54.983Z,51.57
2018-02-21T02:10:22.495Z,50.00
2018-02-21T02:12:49.997Z,47.80
2018-02-21T02:15:17.607Z,53.73
2018-02-21T02:17:45.293Z,46.17
2018-02-21T02:20:12.876Z,50.63
2018-02-21T02:22:40.394Z,48.83
2018-02-21T02:25:08.107Z,46.13
2018-02-21T02:27:35.632Z,53.50
2018-02-21T02:30:03.150Z,46.03
2018-02-21T02:32:30.647Z,46.20
2018-02-21T02:34:58.156Z,44.07
2018-02-21T02:37:25.666Z,43.00
2018-02-21T02:40:01.055Z,45.67
2018-02-21T02:42:29.261Z,45.43
2018-02-21T02:44:56.972Z,48.20
2018-02-21T02:47:24.492Z,45.70
2018-02-21T02:49:52.362Z,45.90
2018-02-21T02:52:19.856Z,46.43
2018-02-21T02:54:47.399Z,53.57
2018-02-21T02:57:15.175Z,46.60
2018-02-21T02:59:42.708Z,43.57
2018-02-21T03:02:10.256Z,49.30
2018-02-21T03:04:37.805Z,43.50
2018-02-21T03:07:05.301Z,52.47
2018-02-21T03:09:33.080Z,53.20
2018-02-21T03:12:02.095Z,45.13
2018-02-21T03:14:29.636Z,52.47
2018-02-21T03:16:57.279Z,51.90
2018-02-21T03:19:25.016Z,57.40
2018-02-21T03:21:52.573Z,58.20
2018-02-21T03:24:20.089Z,49.73
2018-02-21T03:26:47.599Z,52.83
2018-02-21T03:29:15.175Z,46.63
2018-02-21T03:31:42.938Z,50.57
2018-02-21T03:34:10.444Z,49.57
2018-02-21T03:36:38.102Z,46.43
2018-02-21T03:39:05.613Z,48.47
2018-02-21T03:41:33.376Z,48.17
2018-02-21T03:44:00.895Z,47.40
2018-02-21T03:46:28.579Z,49.83
2018-02-21T03:48:56.360Z,53.23
2018-02-21T03:51:23.902Z,52.40
2018-02-21T03:53:51.588Z,47.73
2018-02-21T03:56:19.342Z,48.10
2018-02-21T03:58:46.871Z,49.10
2018-02-21T04:01:14.740Z,48.23
2018-02-21T04:03:42.343Z,55.30
2018-02-21T04:06:11.372Z,46.43
2018-02-21T04:08:38.887Z,45.63
2018-02-21T04:11:06.460Z,48.57
2018-02-21T04:13:33.996Z,51.40
2018-02-21T04:16:01.511Z,48.33
2018-02-21T04:18:29.033Z,55.03
2018-02-21T04:20:56.538Z,50.80
2018-02-21T04:23:24.129Z,46.63
2018-02-21T04:25:51.648Z,43.90
2018-02-21T04:28:19.319Z,52.53
2018-02-21T04:30:47.716Z,56.97
2018-02-21T04:33:15.219Z,40.97
2018-02-21T04:35:42.906Z,50.13
2018-02-21T04:38:10.427Z,51.20
2018-02-21T04:40:39.447Z,46.17
2018-02-21T04:43:07.155Z,45.57
2018-02-21T04:45:34.696Z,49.30
2018-02-21T04:48:02.399Z,47.10
2018-02-21T04:50:29.916Z,61.40
2018-02-21T04:52:57.428Z,42.27
2018-02-21T04:55:31.427Z,48.03
2018-02-21T04:58:05.236Z,49.27
2018-02-21T05:00:32.839Z,50.60
2018-02-21T05:03:00.355Z,51.03
2018-02-21T05:05:27.879Z,44.23
2018-02-21T05:07:55.379Z,50.80
2018-02-21T05:10:23.668Z,47.67
2018-02-21T05:12:51.352Z,39.90
2018-02-21T05:15:19.013Z,46.70
2018-02-21T05:17:46.576Z,46.87
2018-02-21T05:20:14.361Z,53.70
2018-02-21T05:22:41.871Z,52.10
2018-02-21T05:25:09.595Z,43.23
2018-02-21T05:27:37.358Z,46.87
2018-02-21T05:30:05.127Z,43.90
2018-02-21T05:32:32.653Z,41.77
2018-02-21T05:35:00.168Z,58.70
2018-02-21T05:37:28.651Z,51.97
2018-02-21T05:39:56.371Z,42.60
2018-02-21T05:42:23.903Z,47.47
2018-02-21T05:44:51.706Z,54.47
2018-02-21T05:47:19.230Z,46.00
2018-02-21T05:49:46.785Z,46.00
2018-02-21T05:52:14.292Z,45.47
2018-02-21T05:54:42.563Z,51.87
2018-02-21T05:57:10.115Z,48.70
2018-02-21T05:59:38.404Z,48.00
2018-02-21T06:02:05.917Z,41.67
2018-02-21T06:04:33.548Z,45.63
2018-02-21T06:07:01.062Z,46.67
2018-02-21T06:09:28.892Z,45.67
2018-02-21T06:11:56.422Z,50.83
2018-02-21T06:14:24.051Z,47.27
2018-02-21T06:16:51.679Z,49.53
2018-02-21T06:19:19.184Z,48.50
2018-02-21T06:21:46.808Z,48.47
2018-02-21T06:24:14.416Z,49.70
2018-02-21T06:26:41.951Z,44.87
2018-02-21T06:29:09.487Z,42.87
2018-02-21T06:31:37.075Z,54.30
2018-02-21T06:34:06.084Z,48.50
2018-02-21T06:36:33.616Z,47.53
2018-02-21T06:39:01.152Z,51.30
2018-02-21T06:41:28.695Z,48.87
2018-02-21T06:43:56.191Z,45.27
2018-02-21T06:46:23.777Z,50.37
2018-02-21T06:48:52.092Z,41.10
2018-02-21T06:51:19.600Z,172.60
2018-02-21T06:53:48.166Z,81.27
2018-02-21T06:56:15.701Z,54.13
2018-02-21T06:58:43.210Z,48.13
2018-02-21T07:01:11.503Z,44.20
2018-02-21T07:03:39.181Z,48.63
2018-02-21T07:06:06.697Z,49.70
2018-02-21T07:08:34.320Z,48.70
2018-02-21T07:11:01.828Z,47.20
2018-02-21T07:13:29.836Z,43.43
2018-02-21T07:15:57.347Z,47.63
2018-02-21T07:18:24.868Z,47.30
2018-02-21T07:20:52.376Z,48.17
2018-02-21T07:23:19.897Z,49.60
2018-02-21T07:25:47.412Z,51.83
2018-02-21T07:28:15.013Z,57.63
2018-02-21T07:30:43.599Z,50.57
2018-02-21T07:33:11.127Z,46.73
2018-02-21T07:35:38.755Z,47.67
2018-02-21T07:38:07.048Z,48.03
2018-02-21T07:40:34.736Z,50.50
2018-02-21T07:43:02.252Z,57.30
2018-02-21T07:45:29.751Z,58.83
2018-02-21T07:47:57.292Z,48.57
2018-02-21T07:50:24.795Z,46.77
2018-02-21T07:52:52.719Z,50.17
2018-02-21T07:55:20.227Z,49.33
2018-02-21T07:57:48.503Z,53.83
2018-02-21T08:00:16.231Z,47.77
2018-02-21T08:02:43.749Z,45.33
2018-02-21T08:05:11.258Z,60.80
2018-02-21T08:07:38.818Z,52.90
2018-02-21T08:10:06.342Z,51.47
2018-02-21T08:12:33.851Z,48.73
2018-02-21T08:15:01.588Z,47.17
2018-02-21T08:17:29.086Z,42.80
2018-02-21T08:19:56.803Z,52.90
2018-02-21T08:22:24.317Z,45.53
2018-02-21T08:24:51.993Z,50.87
2018-02-21T08:27:19.503Z,50.97
2018-02-21T08:29:47.011Z,55.27
2018-02-21T08:32:14.712Z,51.37
2018-02-21T08:34:42.564Z,55.27
2018-02-21T08:37:10.061Z,50.97
2018-02-21T08:39:37.537Z,55.53
2018-02-21T08:42:05.050Z,49.40
2018-02-21T08:44:32.547Z,48.10
2018-02-21T08:47:00.368Z,44.23
2018-02-21T08:49:28.141Z,45.60
2018-02-21T08:51:55.627Z,46.70
2018-02-21T08:54:23.341Z,50.87
2018-02-21T08:56:51.103Z,49.07
2018-02-21T08:59:18.604Z,51.43
2018-02-21T09:01:46.113Z,45.57
2018-02-21T09:04:13.801Z,43.57
2018-02-21T09:06:41.299Z,45.33
2018-02-21T09:09:08.814Z,48.40
2018-02-21T09:11:36.346Z,47.03
2018-02-21T09:14:03.836Z,45.00
2018-02-21T09:16:31.439Z,54.40
2018-02-21T09:18:58.879Z,49.00
2018-02-21T09:21:26.403Z,39.00
2018-02-21T09:23:54.058Z,46.57
2018-02-21T09:26:21.554Z,50.00
2018-02-21T09:28:49.071Z,49.27
2018-02-21T09:31:16.599Z,49.13
2018-02-21T09:33:44.106Z,51.43
2018-02-21T09:36:11.607Z,45.20
2018-02-21T09:38:39.113Z,45.17
2018-02-21T09:41:08.133Z,40.03
2018-02-21T09:43:35.852Z,42.00
2018-02-21T09:46:03.349Z,47.03
2018-02-21T09:48:31.076Z,39.93
2018-02-21T09:50:58.978Z,42.57
2018-02-21T09:53:27.534Z,44.50
2018-02-21T09:55:55.023Z,43.03
2018-02-21T09:58:22.918Z,44.50
2018-02-21T10:00:51.128Z,34.30
2018-02-21T10:03:18.846Z,44.00
2018-02-21T10:05:46.351Z,49.43
2018-02-21T10:08:14.115Z,43.50
2018-02-21T10:10:43.127Z,38.03
2018-02-21T10:13:10.670Z,37.00
2018-02-21T10:15:38.167Z,38.23
2018-02-21T10:18:05.675Z,31.60
2018-02-21T10:20:33.195Z,35.23
2018-02-21T10:23:01.066Z,32.17
2018-02-21T10:25:28.565Z,26.53
2018-02-21T10:27:56.175Z,28.57
2018-02-21T10:30:23.715Z,27.40
2018-02-21T10:32:51.273Z,26.17
2018-02-21T10:35:19.549Z,29.90
2018-02-21T10:37:47.064Z,29.20
2018-02-21T10:40:14.724Z,30.80
2018-02-21T10:42:42.234Z,21.43
2018-02-21T10:45:09.939Z,24.77
2018-02-21T10:47:37.438Z,26.53
2018-02-21T10:50:10.647Z,25.20
2018-02-21T10:52:38.144Z,23.00
2018-02-21T10:55:05.664Z,23.43
2018-02-21T10:57:33.159Z,24.50
2018-02-21T11:00:00.799Z,20.60
2018-02-21T11:02:29.115Z,29.67
2018-02-21T11:04:56.633Z,24.70
2018-02-21T11:07:24.432Z,20.80
2018-02-21T11:09:51.951Z,21.83
2018-02-21T11:12:19.640Z,21.60
2018-02-21T11:14:47.155Z,24.33
2018-02-21T11:17:14.856Z,23.00
2018-02-21T11:19:42.620Z,25.73
2018-02-21T11:22:10.389Z,23.67
2018-02-21T11:24:37.932Z,28.00
2018-02-21T11:27:05.475Z,25.20
2018-02-21T11:29:32.972Z,30.03
2018-02-21T11:32:00.532Z,17.00
2018-02-21T11:34:28.286Z,31.30
2018-02-21T11:36:55.795Z,20.63
2018-02-21T11:39:23.418Z,20.37
2018-02-21T11:41:50.960Z,24.97
2018-02-21T11:44:18.487Z,21.53
2018-02-21T11:46:46.004Z,25.53
2018-02-21T11:49:13.493Z,24.73
2018-02-21T11:51:40.999Z,25.80
2018-02-21T11:54:08.523Z,22.73
2018-02-21T11:56:36.321Z,22.00
2018-02-21T11:59:03.878Z,31.37
2018-02-21T12:01:31.503Z,23.70
2018-02-21T12:03:59.301Z,29.27
2018-02-21T12:06:26.809Z,27.90
2018-02-21T12:08:54.311Z,33.60
2018-02-21T12:11:21.971Z,27.77
2018-02-21T12:13:49.463Z,27.77
2018-02-21T12:16:16.971Z,28.13
2018-02-21T12:18:44.491Z,28.77
2018-02-21T12:21:12.795Z,36.47
2018-02-21T12:23:40.463Z,27.97
2018-02-21T12:26:08.012Z,32.23
2018-02-21T12:28:35.503Z,36.80
2018-02-21T12:31:03.018Z,30.03
2018-02-21T12:33:30.610Z,30.10
2018-02-21T12:35:58.120Z,27.90
2018-02-21T12:38:25.624Z,28.30
2018-02-21T12:40:59.948Z,28.90
2018-02-21T12:43:27.499Z,32.43
2018-02-21T12:45:55.607Z,27.03
2018-02-21T12:48:23.117Z,28.83
2018-02-21T12:50:50.824Z,38.83
2018-02-21T12:53:18.330Z,33.77
2018-02-21T12:55:45.833Z,30.47
2018-02-21T12:58:13.349Z,28.90
2018-02-21T13:00:40.869Z,32.63
2018-02-21T13:03:08.386Z,27.97
2018-02-21T13:05:35.899Z,40.83
2018-02-21T13:08:03.622Z,35.83
2018-02-21T13:10:31.107Z,28.13
2018-02-21T13:12:58.627Z,32.00
2018-02-21T13:15:26.861Z,33.07
2018-02-21T13:17:54.367Z,28.90
2018-02-21T13:20:21.876Z,31.47
2018-02-21T13:22:49.567Z,29.60
2018-02-21T13:25:17.068Z,26.67
2018-02-21T13:27:44.787Z,31.77
2018-02-21T13:30:12.291Z,30.97
2018-02-21T13:32:39.799Z,29.20
2018-02-21T13:35:07.302Z,23.37
2018-02-21T13:37:35.847Z,31.13
2018-02-21T13:40:03.623Z,27.73
2018-02-21T13:42:31.118Z,24.13
2018-02-21T13:44:58.844Z,21.00
2018-02-21T13:47:26.606Z,24.40
2018-02-21T13:49:54.128Z,22.00
2018-02-21T13:52:21.670Z,22.43
2018-02-21T13:54:49.264Z,23.20
2018-02-21T13:57:16.776Z,24.03
2018-02-21T13:59:44.461Z,23.60
2018-02-21T14:02:12.257Z,21.40
2018-02-21T14:04:39.781Z,24.13
2018-02-21T14:07:07.295Z,25.17
2018-02-21T14:09:34.805Z,25.87
2018-02-21T14:12:02.370Z,28.50
2018-02-21T14:14:29.884Z,28.53
2018-02-21T14:16:57.400Z,28.23
2018-02-21T14:19:25.043Z,28.17
2018-02-21T14:21:52.537Z,21.93
2018-02-21T14:24:20.055Z,27.43
2018-02-21T14:26:47.554Z,25.53
2018-02-21T14:29:15.211Z,28.53
2018-02-21T14:31:42.713Z,22.30
2018-02-21T14:34:10.246Z,29.87
2018-02-21T14:36:37.747Z,26.17
2018-02-21T14:39:05.334Z,30.00
2018-02-21T14:41:32.839Z,29.63
2018-02-21T14:44:00.554Z,29.10
2018-02-21T14:46:28.109Z,28.43
2018-02-21T14:48:55.641Z,27.10
2018-02-21T14:51:23.244Z,26.30
2018-02-21T14:53:50.991Z,39.57
2018-02-21T14:56:18.756Z,31.23
2018-02-21T14:58:46.256Z,30.70
2018-02-21T15:01:15.408Z,38.40
2018-02-21T15:03:42.914Z,30.43
2018-02-21T15:06:10.730Z,35.93
2018-02-21T15:08:38.228Z,27.60
2018-02-21T15:11:06.571Z,30.70
2018-02-21T15:13:34.083Z,32.27
2018-02-21T15:16:01.621Z,31.90
2018-02-21T15:18:29.892Z,29.20
2018-02-21T15:20:57.647Z,26.93
2018-02-21T15:23:25.403Z,26.83
2018-02-21T15:25:52.894Z,26.13
2018-02-21T15:28:20.396Z,23.80
2018-02-21T15:30:48.036Z,25.00
2018-02-21T15:33:15.699Z,27.30
2018-02-21T15:35:43.204Z,28.40
2018-02-21T15:38:10.895Z,27.43
2018-02-21T15:40:39.163Z,33.63
2018-02-21T15:43:06.877Z,33.40
2018-02-21T15:45:34.380Z,33.07
2018-02-21T15:48:02.115Z,33.83
2018-02-21T15:50:29.630Z,30.47
2018-02-21T15:52:57.153Z,26.97
2018-02-21T15:55:25.416Z,29.93
2018-02-21T15:57:53.039Z,32.60
2018-02-21T16:00:20.547Z,28.90
2018-02-21T16:02:48.062Z,33.83
2018-02-21T16:05:15.809Z,28.00
2018-02-21T16:07:43.324Z,28.37
2018-02-21T16:10:11.036Z,28.17
2018-02-21T16:12:38.550Z,25.23
2018-02-21T16:15:06.269Z,27.57
2018-02-21T16:17:33.789Z,28.47
2018-02-21T16:20:01.304Z,28.57
2018-02-21T16:22:29.415Z,34.60
2018-02-21T16:24:56.934Z,34.57
2018-02-21T16:27:24.474Z,27.83
2018-02-21T16:29:51.974Z,25.70
2018-02-21T16:32:19.708Z,29.63
2018-02-21T16:34:47.473Z,31.40
2018-02-21T16:37:15.236Z,33.50
2018-02-21T16:39:42.747Z,25.50
2018-02-21T16:42:10.238Z,26.33
2018-02-21T16:44:37.897Z,31.30
2018-02-21T16:47:05.672Z,27.17
2018-02-21T16:49:33.447Z,31.93
2018-02-21T16:52:01.060Z,30.83
2018-02-21T16:54:28.569Z,36.67
2018-02-21T16:56:56.074Z,25.00
2018-02-21T16:59:23.590Z,26.70
2018-02-21T17:01:51.088Z,48.83
2018-02-21T17:04:18.779Z,24.00
2018-02-21T17:06:46.372Z,26.20
2018-02-21T17:09:14.012Z,33.87
2018-02-21T17:11:41.533Z,31.13
2018-02-21T17:14:09.054Z,25.50
2018-02-21T17:16:37.322Z,24.87
2018-02-21T17:19:05.048Z,33.83
2018-02-21T17:21:32.552Z,40.30
2018-02-21T17:24:00.128Z,26.40
2018-02-21T17:26:27.700Z,29.10
2018-02-21T17:28:55.203Z,25.73
2018-02-21T17:31:22.714Z,29.23
2018-02-21T17:33:50.226Z,26.77
2018-02-21T17:36:17.832Z,28.57
2018-02-21T17:38:45.343Z,30.10
2018-02-21T17:41:18.422Z,27.70
2018-02-21T17:43:45.931Z,34.00
2018-02-21T17:46:14.816Z,31.67
2018-02-21T17:48:42.335Z,31.50
2018-02-21T17:51:09.842Z,28.90
2018-02-21T17:53:37.347Z,38.47
2018-02-21T17:56:04.859Z,35.73
2018-02-21T17:58:32.362Z,30.00
2018-02-21T18:01:00.080Z,31.03
2018-02-21T18:03:27.864Z,31.27
2018-02-21T18:05:55.385Z,28.70
2018-02-21T18:08:23.486Z,29.93
2018-02-21T18:10:51.155Z,28.00
2018-02-21T18:13:18.988Z,27.50
2018-02-21T18:15:47.405Z,29.93
2018-02-21T18:18:15.079Z,33.60
2018-02-21T18:20:42.566Z,44.57
2018-02-21T18:23:10.078Z,37.77
2018-02-21T18:25:37.721Z,38.33
2018-02-21T18:28:05.315Z,31.50
2018-02-21T18:30:32.820Z,36.57
2018-02-21T18:33:00.411Z,35.53
2018-02-21T18:35:27.959Z,36.90
2018-02-21T18:37:55.627Z,42.40
2018-02-21T18:40:23.398Z,48.23
2018-02-21T18:42:50.908Z,41.47
2018-02-21T18:45:18.406Z,43.30
2018-02-21T18:47:46.031Z,45.77
2018-02-21T18:50:13.547Z,41.13
2018-02-21T18:52:42.576Z,37.60
2018-02-21T18:55:10.075Z,41.13
2018-02-21T18:57:38.363Z,42.47
2018-02-21T19:00:06.376Z,37.70
2018-02-21T19:02:33.903Z,38.60
2018-02-21T19:05:02.942Z,38.17
2018-02-21T19:07:30.647Z,34.07
2018-02-21T19:09:58.177Z,42.83
2018-02-21T19:12:25.687Z,45.47
2018-02-21T19:14:53.200Z,39.20
2018-02-21T19:17:20.790Z,48.40
2018-02-21T19:19:48.588Z,37.37
2018-02-21T19:22:16.099Z,35.70
2018-02-21T19:24:43.702Z,35.73
2018-02-21T19:27:11.257Z,38.80
2018-02-21T19:29:38.795Z,36.67
2018-02-21T19:32:06.473Z,42.57
2018-02-21T19:34:34.139Z,44.67
2018-02-21T19:37:02.243Z,38.97
2018-02-21T19:39:29.757Z,37.60
2018-02-21T19:41:57.300Z,40.77
2018-02-21T19:44:24.851Z,42.73
2018-02-21T19:46:52.401Z,40.53
2018-02-21T19:49:20.005Z,44.87
2018-02-21T19:51:47.560Z,43.10
2018-02-21T19:54:15.096Z,54.67
2018-02-21T19:56:42.622Z,70.43
2018-02-21T19:59:10.189Z,39.00
2018-02-21T20:01:37.705Z,42.60
2018-02-21T20:04:06.024Z,38.20
2018-02-21T20:06:33.681Z,39.20
2018-02-21T20:09:01.208Z,46.00
2018-02-21T20:11:28.884Z,45.20
2018-02-21T20:13:56.396Z,45.47
2018-02-21T20:16:23.964Z,42.70
2018-02-21T20:18:51.553Z,44.97
2018-02-21T20:21:19.104Z,51.77
2018-02-21T20:23:46.819Z,42.13
2018-02-21T20:26:14.376Z,46.83
2018-02-21T20:28:42.099Z,44.13
2018-02-21T20:31:09.644Z,39.47
2018-02-21T20:33:37.238Z,45.90
2018-02-21T20:36:04.752Z,43.87
2018-02-21T20:38:33.247Z,41.07
2018-02-21T20:41:00.869Z,48.60
2018-02-21T20:43:30.093Z,48.07
2018-02-21T20:45:57.774Z,53.40
2018-02-21T20:48:25.598Z,45.47
2018-02-21T20:50:53.111Z,52.07
2018-02-21T20:53:20.793Z,45.70
2018-02-21T20:55:48.308Z,47.97
2018-02-21T20:58:15.831Z,53.40
2018-02-21T21:00:43.348Z,45.17
2018-02-21T21:03:10.869Z,43.27
2018-02-21T21:05:38.866Z,48.53
2018-02-21T21:08:06.365Z,40.37
2018-02-21T21:10:33.903Z,46.53
2018-02-21T21:13:01.674Z,48.87
2018-02-21T21:15:29.191Z,46.37
2018-02-21T21:17:56.886Z,43.90
2018-02-21T21:20:24.430Z,43.97
2018-02-21T21:22:52.128Z,79.43
2018-02-21T21:25:19.882Z,102.13
2018-02-21T21:27:47.521Z,52.30
2018-02-21T21:30:15.118Z,59.53
2018-02-21T21:32:44.136Z,49.23
2018-02-21T21:35:11.647Z,52.40
2018-02-21T21:37:39.147Z,47.07
2018-02-21T21:40:07.692Z,48.70
2018-02-21T21:42:35.192Z,50.27
2018-02-21T21:45:02.707Z,46.43
2018-02-21T21:47:30.227Z,47.83
2018-02-21T21:49:57.796Z,53.57
2018-02-21T21:52:25.307Z,50.63
2018-02-21T21:54:52.808Z,46.83
2018-02-21T21:57:20.468Z,49.20
2018-02-21T21:59:47.971Z,57.23
2018-02-21T22:02:17.262Z,57.17
2018-02-21T22:04:45.015Z,45.73
2018-02-21T22:07:12.827Z,48.43
2018-02-21T22:09:40.339Z,48.43
2018-02-21T22:12:07.999Z,45.23
2018-02-21T22:14:35.503Z,48.33
2018-02-21T22:17:03.239Z,55.57
2018-02-21T22:19:32.260Z,53.50
2018-02-21T22:21:59.968Z,52.47
2018-02-21T22:24:27.468Z,51.20
2018-02-21T22:26:54.975Z,49.57
2018-02-21T22:29:22.680Z,162.00
2018-02-21T22:31:51.683Z,68.83
2018-02-21T22:34:19.200Z,44.07
2018-02-21T22:36:46.860Z,53.33
2018-02-21T22:39:14.363Z,43.40
2018-02-21T22:41:41.867Z,51.43
2018-02-21T22:44:09.540Z,48.20
2018-02-21T22:46:37.168Z,49.73
2018-02-21T22:49:04.763Z,54.87
2018-02-21T22:51:32.527Z,46.67
2018-02-21T22:54:00.041Z,51.37
2018-02-21T22:56:27.701Z,49.40
2018-02-21T22:58:55.501Z,48.93
2018-02-21T23:01:23.004Z,56.60
2018-02-21T23:03:50.728Z,41.83
2018-02-21T23:06:18.227Z,55.37
2018-02-21T23:08:45.736Z,51.67
2018-02-21T23:11:13.251Z,51.33
2018-02-21T23:13:40.760Z,58.80
2018-02-21T23:16:08.317Z,51.80
2018-02-21T23:18:36.084Z,46.33
2018-02-21T23:21:03.842Z,52.13
2018-02-21T23:23:31.992Z,51.43
2018-02-21T23:25:59.495Z,44.40
2018-02-21T23:28:27.003Z,47.17
2018-02-21T23:30:54.564Z,49.70
2018-02-21T23:33:22.353Z,55.93
2018-02-21T23:35:49.863Z,49.23
2018-02-21T23:38:17.548Z,50.87
2018-02-21T23:40:45.055Z,53.40
2018-02-21T23:43:12.565Z,45.00
2018-02-21T23:45:40.070Z,57.37
2018-02-21T23:48:08.324Z,50.43
2018-02-21T23:50:35.958Z,50.23
2018-02-21T23:53:03.676Z,48.90
2018-02-21T23:55:31.169Z,53.20
2018-02-21T23:57:58.710Z,53.87
